Airfield :







YOU CAN JOIN US ON...

 
LOGIN :

Register | Disclaimer

   EN    FR    IT 

 









Legend :    VFR   Marginal VFR   IFR   Intensive IFR   Very Intensive IFR
Visi :
Ceiling :
>= 8 km
>= 3000ft
5 to 8 km
1000 to 3000 ft
1500m to 5 km
500 to 1000 ft
800 to 1500m
200 to 500 ft
< 800m
< 200 ft
Symbols :   Thunderstorms  Fog  Heavy snow  Heavy precipitations  Wind > 20 kt







- Airport Elevation : 84 ft
- IATA code : YJT


CYJT - Stephenville

CURRENT METAR :
  • 161400Z VRB02KT 3SM -RA BR OVC005 12/12 A2978 RMK SF8 SLP088

EXPIRED METARs :
  • 161337Z 27002KT 2 1/2SM -RA BR OVC005 12/11 A2978 RMK SF8 SLP088
  • 161320Z 26003KT 1SM R27/P6000FT/N -DZ BR OVC003 12/11 A2979 RMK ST8 SLP089
  • 161300Z 22004KT 1/2SM R27/3000VP6000FT/U -DZ BR VV002 12/11 A2979 RMK FG8 SLP090
  • 161200Z 18006KT 1/2SM R27/2800VP6000FT/U -DZ FG VV002 12/12 A2978 RMK FG8 SLP088
  • 161141Z 20004KT 1/2SM R27/6000FT/D -DZ FG VV002 12/12 A2978 RMK FG8 SLP088
  • 161121Z VRB02KT 1SM R27/P6000FT/D -DZ BR OVC003 12/12 A2978 RMK ST8 SLP088

TAF TAF CYJT
Valid from the 16 at 12:00 until the 17 at 12:00 UTC


161138Z 1612/1712 VRB03KT 1/2SM -DZ FG VV002
TEMPO 1612/1614 1SM -SHRA BR OVC003
FM161400 25008KT 6SM -RA BR OVC010
TEMPO 1614/1617 2SM -DZ BR OVC005
FM161700 30010KT 4SM -RA BR OVC010
BECMG 1621/1623 36010KT
FM170200 03015KT 5SM -RA BR OVC015
FM170800 03015G25KT P6SM OVC020
BECMG 1709/1711 36010G20KT RMK NXT FCST BY 161800Z
No reported NOTAMs for that airfield.



MET'MAP, your aeronautical weather chart ! - Copyright ORBIFLY December 2007 - Disclaimer

ORBIFLY MET'MAP TEAM :

Programming & Development : Alexandra Zaïnal
Concept & Development : Baudouin d'Aumeries
Co-Development & Prog : Marc-Olivier Méhu
Technical & hardware support : Manuel Goepfert

Contact : metmap@orbifly.com




SOURCES & CREDITS :

   NOAA